Time;durP1;ratioP1;P1;durP2;ratioP2;P2;SDS_P1;SDS_P2;PMS_P1;PMS_P2;Temp;Humidity;BMP_temperature;BMP_pressure;BME280_temperature;BME280_humidity;BME280_pressure;Samples;Min_cycle;Max_cycle;Signal;HPM_P1;HPM_P2
2024/02/23 00:01:25;;;;;;;1.58;1.20;;;5.80;99.90;;;;;;476716;249;27901;-73
2024/02/23 00:03:26;;;;;;;4.20;1.35;;;5.70;99.90;;;;;;476670;249;28029;-71
2024/02/23 00:05:27;;;;;;;5.35;1.85;;;5.80;99.90;;;;;;476732;249;27576;-71
2024/02/23 00:07:29;;;;;;;2.45;1.35;;;5.80;99.90;;;;;;476706;249;27512;-73
2024/02/23 00:09:30;;;;;;;9.27;1.50;;;5.80;99.90;;;;;;476747;249;27641;-72
2024/02/23 00:11:33;;;;;;;3.83;1.65;;;5.80;99.90;;;;;;476755;249;27555;-73
2024/02/23 00:13:37;;;;;;;4.43;1.42;;;5.80;99.90;;;;;;476442;249;27521;-72
2024/02/23 00:15:38;;;;;;;5.87;1.70;;;5.80;99.90;;;;;;476592;249;27553;-72
2024/02/23 00:17:39;;;;;;;2.95;1.60;;;5.80;99.90;;;;;;476621;249;28047;-73
2024/02/23 00:19:41;;;;;;;3.92;1.80;;;5.80;99.90;;;;;;476705;249;28073;-73
2024/02/23 00:21:42;;;;;;;10.07;1.80;;;5.80;99.90;;;;;;476733;249;27525;-71
2024/02/23 00:23:43;;;;;;;8.23;1.75;;;5.80;99.90;;;;;;476678;249;27678;-72
2024/02/23 00:25:45;;;;;;;4.55;1.65;;;5.80;99.90;;;;;;476683;249;27519;-72
2024/02/23 00:27:46;;;;;;;8.65;1.80;;;5.80;99.90;;;;;;476559;249;27580;-72
2024/02/23 00:29:47;;;;;;;2.12;1.30;;;5.80;99.90;;;;;;476728;245;28118;-75
2024/02/23 00:31:48;;;;;;;6.30;1.73;;;5.80;99.90;;;;;;476738;249;27987;-74
2024/02/23 00:33:50;;;;;;;6.18;1.92;;;5.80;99.90;;;;;;476688;249;27545;-74
2024/02/23 00:35:51;;;;;;;4.78;1.80;;;5.80;99.90;;;;;;476695;249;27513;-72
2024/02/23 00:37:52;;;;;;;4.65;1.75;;;5.80;99.90;;;;;;476568;249;27541;-72
2024/02/23 00:39:53;;;;;;;5.22;1.85;;;5.70;99.90;;;;;;476728;249;27557;-74
2024/02/23 00:41:55;;;;;;;7.05;1.90;;;5.80;99.90;;;;;;476721;249;27508;-71
2024/02/23 00:43:56;;;;;;;3.03;1.52;;;5.80;99.90;;;;;;476671;249;27592;-74
2024/02/23 00:45:57;;;;;;;4.05;1.60;;;5.80;99.90;;;;;;476631;249;28768;-71
2024/02/23 00:47:59;;;;;;;7.25;2.03;;;5.80;99.90;;;;;;476669;249;28048;-71
2024/02/23 00:50:00;;;;;;;6.72;1.75;;;5.80;99.90;;;;;;476726;249;27624;-74
2024/02/23 00:52:01;;;;;;;5.60;2.20;;;5.80;99.90;;;;;;476691;245;27507;-72
2024/02/23 00:54:02;;;;;;;5.70;1.67;;;5.80;99.90;;;;;;476647;249;27544;-73
2024/02/23 00:56:03;;;;;;;5.03;1.52;;;5.80;99.90;;;;;;476702;249;28017;-75
2024/02/23 00:58:05;;;;;;;9.57;1.75;;;5.70;99.90;;;;;;476718;249;27618;-74
2024/02/23 01:00:06;;;;;;;6.15;1.70;;;5.80;99.90;;;;;;476745;249;28094;-72
2024/02/23 01:02:07;;;;;;;8.18;2.37;;;5.80;99.90;;;;;;476685;249;28004;-71
2024/02/23 01:04:08;;;;;;;5.87;2.10;;;5.80;99.90;;;;;;476659;249;27644;-71
2024/02/23 01:06:10;;;;;;;7.25;2.10;;;5.80;99.90;;;;;;476734;249;27584;-75
2024/02/23 01:08:11;;;;;;;4.10;1.40;;;5.80;99.90;;;;;;476661;249;27624;-73
2024/02/23 01:10:12;;;;;;;1.10;1.00;;;4.30;99.90;;;;;;476686;249;27576;-74
2024/02/23 01:12:13;;;;;;;1.10;1.00;;;3.40;99.90;;;;;;476607;249;27553;-73
2024/02/23 01:14:15;;;;;;;1.25;1.15;;;3.10;99.90;;;;;;476736;249;27950;-73
2024/02/23 01:16:16;;;;;;;1.98;1.17;;;3.00;99.90;;;;;;476726;249;28019;-74
2024/02/23 01:18:17;;;;;;;1.05;1.00;;;3.00;99.90;;;;;;476652;249;27990;-73
2024/02/23 01:20:18;;;;;;;0.98;0.93;;;2.90;99.90;;;;;;476669;249;27541;-73
2024/02/23 01:22:20;;;;;;;3.30;1.10;;;3.10;99.90;;;;;;476688;249;27558;-71
2024/02/23 01:24:21;;;;;;;0.95;0.90;;;3.20;99.90;;;;;;476687;249;27510;-71
2024/02/23 01:26:22;;;;;;;1.20;1.10;;;3.20;99.90;;;;;;476710;249;27640;-72
2024/02/23 01:28:23;;;;;;;1.35;1.12;;;3.20;99.90;;;;;;476681;249;27550;-71
2024/02/23 01:30:25;;;;;;;2.25;1.10;;;3.20;99.90;;;;;;476694;249;27572;-72
2024/02/23 01:32:26;;;;;;;1.23;1.12;;;3.30;99.90;;;;;;476704;249;27917;-72
2024/02/23 01:34:27;;;;;;;2.12;1.15;;;3.30;99.90;;;;;;476695;249;27510;-73
2024/02/23 01:36:28;;;;;;;4.00;1.10;;;3.40;99.90;;;;;;476686;249;27664;-73
2024/02/23 01:38:32;;;;;;;2.58;1.40;;;3.40;99.90;;;;;;476675;249;27626;-74
2024/02/23 01:40:31;;;;;;;2.85;1.20;;;3.40;99.90;;;;;;476562;249;28022;-74
2024/02/23 01:42:32;;;;;;;2.45;1.12;;;3.40;99.90;;;;;;476741;249;28034;-74
2024/02/23 01:44:33;;;;;;;1.02;1.02;;;3.30;99.90;;;;;;476644;249;28062;-73
2024/02/23 01:46:35;;;;;;;1.25;1.15;;;3.40;99.90;;;;;;476659;249;28140;-73
2024/02/23 01:48:36;;;;;;;1.87;0.93;;;3.30;99.90;;;;;;476591;249;27933;-71
2024/02/23 01:50:37;;;;;;;1.75;1.20;;;3.30;99.90;;;;;;476750;249;27535;-71
2024/02/23 01:52:39;;;;;;;1.50;1.00;;;3.30;99.90;;;;;;476708;249;27554;-72
2024/02/23 01:54:40;;;;;;;2.08;1.17;;;3.30;99.90;;;;;;476724;249;27507;-71
2024/02/23 01:56:42;;;;;;;3.22;1.40;;;3.20;99.90;;;;;;476636;249;27574;-71
2024/02/23 01:58:42;;;;;;;3.00;1.15;;;3.30;99.90;;;;;;476692;245;27586;-71
2024/02/23 02:00:43;;;;;;;6.35;1.45;;;3.40;99.90;;;;;;476754;249;27581;-71
2024/02/23 02:02:45;;;;;;;3.92;1.40;;;3.60;99.90;;;;;;476707;246;27634;-71
2024/02/23 02:04:46;;;;;;;2.42;1.27;;;3.60;99.90;;;;;;476732;249;27641;-71
2024/02/23 02:06:47;;;;;;;3.05;1.35;;;3.80;99.90;;;;;;476678;249;27635;-71
2024/02/23 02:08:49;;;;;;;4.95;1.48;;;3.80;99.90;;;;;;476702;249;28059;-74
2024/02/23 02:10:50;;;;;;;1.65;1.17;;;3.80;99.90;;;;;;476730;249;27626;-71
2024/02/23 02:12:51;;;;;;;1.80;1.40;;;3.80;99.90;;;;;;476582;249;27597;-72
2024/02/23 02:14:52;;;;;;;3.58;1.50;;;3.80;99.90;;;;;;476729;249;27588;-71
2024/02/23 02:16:54;;;;;;;2.08;1.42;;;3.90;99.90;;;;;;476699;249;27645;-71
2024/02/23 02:18:55;;;;;;;2.15;1.33;;;4.00;99.90;;;;;;476724;249;27565;-72
2024/02/23 02:20:59;;;;;;;3.78;1.80;;;4.00;99.90;;;;;;476701;249;27522;-71
2024/02/23 02:22:57;;;;;;;4.78;1.48;;;4.10;99.90;;;;;;476485;249;27577;-71
2024/02/23 02:24:59;;;;;;;6.57;2.00;;;4.00;99.90;;;;;;476750;249;28801;-72
2024/02/23 02:27:00;;;;;;;3.15;1.48;;;4.00;99.90;;;;;;476648;249;27974;-71
2024/02/23 02:29:01;;;;;;;3.87;1.52;;;4.10;99.90;;;;;;476741;249;29223;-74
2024/02/23 02:31:03;;;;;;;2.35;1.58;;;4.10;99.90;;;;;;476712;245;27504;-73
2024/02/23 02:33:04;;;;;;;3.92;1.40;;;4.10;99.90;;;;;;476667;249;27572;-73
2024/02/23 02:35:05;;;;;;;5.30;1.62;;;4.10;99.90;;;;;;476709;249;27675;-74
2024/02/23 02:37:06;;;;;;;4.60;1.60;;;4.10;99.90;;;;;;476678;249;27522;-73
2024/02/23 02:39:07;;;;;;;7.07;1.80;;;4.00;99.90;;;;;;476729;249;27545;-74
2024/02/23 02:41:09;;;;;;;3.65;1.70;;;4.00;99.90;;;;;;476726;249;27508;-73
2024/02/23 02:43:10;;;;;;;3.97;1.48;;;4.00;99.90;;;;;;476717;249;27665;-73
2024/02/23 02:45:11;;;;;;;4.72;2.10;;;4.10;99.90;;;;;;476771;249;27577;-75
2024/02/23 02:47:12;;;;;;;4.12;1.65;;;4.10;99.90;;;;;;476704;249;27578;-73
2024/02/23 02:49:14;;;;;;;7.03;1.90;;;4.00;99.90;;;;;;476750;249;27579;-74
2024/02/23 02:51:15;;;;;;;2.92;1.40;;;4.00;99.90;;;;;;476717;249;27641;-73
2024/02/23 02:53:16;;;;;;;3.50;1.52;;;4.00;99.90;;;;;;476769;249;27665;-73
2024/02/23 02:55:18;;;;;;;5.72;1.58;;;4.00;99.90;;;;;;476745;249;27578;-73
2024/02/23 02:57:19;;;;;;;3.65;1.75;;;4.00;99.90;;;;;;476704;249;27581;-71
2024/02/23 02:59:20;;;;;;;2.50;2.00;;;4.00;99.90;;;;;;476739;249;27678;-71
2024/02/23 03:01:21;;;;;;;4.68;1.67;;;4.00;99.90;;;;;;476775;249;27577;-76
2024/02/23 03:03:22;;;;;;;3.90;1.40;;;4.00;99.90;;;;;;476758;249;27590;-73
2024/02/23 03:05:24;;;;;;;2.50;1.40;;;4.00;99.90;;;;;;476593;249;28827;-74
2024/02/23 03:07:25;;;;;;;4.78;1.65;;;4.00;99.90;;;;;;476659;249;28033;-73
2024/02/23 03:09:26;;;;;;;4.32;1.75;;;3.90;99.90;;;;;;476515;249;28233;-73
2024/02/23 03:11:27;;;;;;;3.30;1.30;;;3.90;99.90;;;;;;476763;249;27554;-75
2024/02/23 03:13:29;;;;;;;2.90;1.45;;;3.90;99.90;;;;;;476746;245;27586;-73
2024/02/23 03:15:30;;;;;;;2.45;1.50;;;3.90;99.90;;;;;;476726;249;27591;-73
2024/02/23 03:17:31;;;;;;;2.97;2.00;;;4.00;99.90;;;;;;476654;249;27656;-73
2024/02/23 03:19:32;;;;;;;2.33;1.62;;;4.00;99.90;;;;;;476694;249;27526;-73
2024/02/23 03:21:34;;;;;;;4.07;1.48;;;4.00;99.90;;;;;;476671;249;27593;-74
2024/02/23 03:23:35;;;;;;;8.23;1.70;;;4.00;99.90;;;;;;476659;249;27582;-74
2024/02/23 03:25:36;;;;;;;3.65;1.50;;;4.00;99.90;;;;;;476638;249;28137;-72
2024/02/23 03:27:37;;;;;;;3.53;1.60;;;4.00;99.90;;;;;;476608;249;28776;-73
2024/02/23 03:29:39;;;;;;;11.27;1.90;;;4.00;99.90;;;;;;476722;249;28133;-73
2024/02/23 03:31:40;;;;;;;2.47;1.50;;;3.90;99.90;;;;;;476700;249;27638;-71
2024/02/23 03:33:41;;;;;;;5.57;1.70;;;3.80;99.90;;;;;;476643;249;27613;-71
2024/02/23 03:35:42;;;;;;;7.35;1.95;;;3.80;99.90;;;;;;476628;249;27589;-73
2024/02/23 03:37:44;;;;;;;4.03;1.55;;;3.80;99.90;;;;;;476513;249;27559;-75
2024/02/23 03:39:45;;;;;;;3.37;1.65;;;3.80;99.90;;;;;;476679;249;27521;-72
2024/02/23 03:41:46;;;;;;;8.07;2.53;;;3.80;99.90;;;;;;476682;249;27565;-73
2024/02/23 03:43:47;;;;;;;4.50;2.50;;;3.70;99.90;;;;;;476689;249;27518;-72
2024/02/23 03:45:49;;;;;;;5.03;1.70;;;3.70;99.90;;;;;;476706;249;27546;-74
2024/02/23 03:47:50;;;;;;;6.95;1.58;;;3.70;99.90;;;;;;476673;249;27654;-76
2024/02/23 03:49:51;;;;;;;4.55;1.60;;;3.60;99.90;;;;;;476708;249;28082;-73
2024/02/23 03:51:52;;;;;;;5.85;1.90;;;3.60;99.90;;;;;;476684;249;28023;-73
2024/02/23 03:53:54;;;;;;;7.62;1.48;;;3.60;99.90;;;;;;476660;249;28145;-73
2024/02/23 03:55:55;;;;;;;5.35;1.58;;;3.50;99.90;;;;;;476686;249;29079;-73
2024/02/23 03:57:56;;;;;;;4.57;1.85;;;3.50;99.90;;;;;;476661;249;27569;-73
2024/02/23 03:59:57;;;;;;;3.72;1.58;;;3.60;99.90;;;;;;476684;249;27617;-73
2024/02/23 04:01:59;;;;;;;3.28;1.73;;;3.60;99.90;;;;;;476667;249;27677;-74
2024/02/23 04:04:00;;;;;;;1.92;1.48;;;3.50;99.90;;;;;;476686;249;27542;-73
2024/02/23 04:06:01;;;;;;;6.10;1.90;;;3.50;99.90;;;;;;476700;249;27602;-73
2024/02/23 04:08:02;;;;;;;6.12;2.10;;;3.50;99.90;;;;;;476647;249;27573;-73
2024/02/23 04:10:04;;;;;;;5.90;1.80;;;3.50;99.90;;;;;;476705;249;27632;-73
2024/02/23 04:12:07;;;;;;;5.05;2.53;;;3.50;99.90;;;;;;476694;249;27616;-73
2024/02/23 04:14:06;;;;;;;4.72;1.87;;;3.50;99.90;;;;;;476601;249;27610;-75
2024/02/23 04:16:07;;;;;;;3.85;1.90;;;3.50;99.90;;;;;;476725;249;28072;-73
2024/02/23 04:18:09;;;;;;;8.27;2.35;;;3.50;99.90;;;;;;476589;249;28145;-73
2024/02/23 04:20:10;;;;;;;4.60;2.12;;;3.50;99.90;;;;;;476677;249;28089;-73
2024/02/23 04:22:11;;;;;;;5.80;2.15;;;3.50;99.90;;;;;;476690;249;27573;-71
2024/02/23 04:24:12;;;;;;;7.65;2.08;;;3.40;99.90;;;;;;476726;249;27597;-73
2024/02/23 04:26:14;;;;;;;9.18;1.80;;;3.40;99.90;;;;;;476701;249;27561;-70
2024/02/23 04:28:15;;;;;;;7.60;1.80;;;3.40;99.90;;;;;;476598;249;27669;-72
2024/02/23 04:30:16;;;;;;;3.90;1.90;;;3.50;99.90;;;;;;476699;249;27519;-71
2024/02/23 04:32:17;;;;;;;5.68;2.30;;;3.60;99.90;;;;;;476743;249;27601;-71
2024/02/23 04:34:19;;;;;;;7.35;1.98;;;3.50;99.90;;;;;;476719;249;27689;-72
2024/02/23 04:36:21;;;;;;;5.97;2.05;;;3.50;99.90;;;;;;476692;249;27582;-71
2024/02/23 04:38:21;;;;;;;5.35;2.00;;;3.50;99.90;;;;;;476665;245;27586;-71
2024/02/23 04:40:23;;;;;;;6.90;1.65;;;3.50;99.90;;;;;;476571;245;27619;-71
2024/02/23 04:42:24;;;;;;;2.97;1.62;;;3.40;99.90;;;;;;476735;249;28037;-73
2024/02/23 04:44:25;;;;;;;4.50;1.92;;;3.50;99.90;;;;;;476636;249;28883;-73
2024/02/23 04:46:26;;;;;;;6.87;1.70;;;3.60;99.90;;;;;;476731;249;27986;-73
2024/02/23 04:48:27;;;;;;;4.22;2.00;;;3.70;99.90;;;;;;476668;249;28048;-73
2024/02/23 04:50:29;;;;;;;6.47;1.65;;;3.70;99.90;;;;;;476635;249;27718;-73
2024/02/23 04:52:30;;;;;;;5.20;2.20;;;3.70;99.90;;;;;;476743;249;27526;-71
2024/02/23 04:54:31;;;;;;;5.68;1.70;;;3.70;99.90;;;;;;476715;249;27569;-71
2024/02/23 04:56:33;;;;;;;7.10;2.50;;;3.70;99.90;;;;;;476665;249;27602;-71
2024/02/23 04:58:34;;;;;;;2.40;1.80;;;3.70;99.90;;;;;;476717;249;27550;-72
2024/02/23 05:00:35;;;;;;;3.92;1.70;;;3.70;99.90;;;;;;476751;245;28177;-72
2024/02/23 05:02:36;;;;;;;4.53;1.85;;;3.70;99.90;;;;;;476554;249;28073;-71
2024/02/23 05:04:38;;;;;;;6.47;2.20;;;3.70;99.90;;;;;;476672;249;28026;-71
2024/02/23 05:06:39;;;;;;;8.75;2.40;;;3.60;99.90;;;;;;476673;249;28750;-71
2024/02/23 05:08:40;;;;;;;6.28;1.75;;;3.60;99.90;;;;;;476738;249;27515;-71
2024/02/23 05:10:41;;;;;;;4.60;1.60;;;3.60;99.90;;;;;;476712;249;27553;-71
2024/02/23 05:12:43;;;;;;;3.75;1.85;;;3.60;99.90;;;;;;476667;249;27510;-71
2024/02/23 05:14:44;;;;;;;4.03;2.10;;;3.60;99.90;;;;;;476685;249;27557;-70
2024/02/23 05:16:45;;;;;;;4.68;1.85;;;3.60;99.90;;;;;;476655;249;28019;-70
2024/02/23 05:18:46;;;;;;;4.90;1.85;;;3.60;99.90;;;;;;476685;246;27590;-71
2024/02/23 05:20:47;;;;;;;4.35;1.58;;;3.60;99.90;;;;;;476678;249;27541;-71
2024/02/23 05:22:49;;;;;;;7.97;2.03;;;3.60;99.90;;;;;;476695;249;27579;-71
2024/02/23 05:24:50;;;;;;;4.20;1.80;;;3.70;99.90;;;;;;476602;249;27550;-72
2024/02/23 05:26:51;;;;;;;4.15;1.85;;;3.70;99.90;;;;;;476669;249;27550;-72
2024/02/23 05:28:53;;;;;;;6.55;1.80;;;3.80;99.90;;;;;;476560;249;27979;-71
2024/02/23 05:30:54;;;;;;;4.30;1.90;;;3.80;99.90;;;;;;476708;249;28044;-72
2024/02/23 05:32:55;;;;;;;6.55;1.77;;;3.80;99.90;;;;;;476738;249;28759;-71
2024/02/23 05:34:56;;;;;;;7.87;2.97;;;3.80;99.90;;;;;;476782;249;27598;-71
2024/02/23 05:36:58;;;;;;;4.15;1.62;;;3.80;99.90;;;;;;476733;249;27556;-72
2024/02/23 05:38:59;;;;;;;2.92;1.95;;;3.70;99.90;;;;;;476750;249;27596;-71
2024/02/23 05:41:00;;;;;;;3.95;1.80;;;3.70;99.90;;;;;;476744;249;27542;-71
2024/02/23 05:43:01;;;;;;;4.37;2.20;;;3.70;99.90;;;;;;476771;246;27532;-71
2024/02/23 05:45:04;;;;;;;1.85;1.70;;;3.70;99.90;;;;;;476784;249;27623;-71
2024/02/23 05:47:04;;;;;;;4.55;1.73;;;3.80;99.90;;;;;;476605;249;27590;-71
2024/02/23 05:49:05;;;;;;;4.87;1.62;;;3.80;99.90;;;;;;476695;249;27509;-71
2024/02/23 05:51:06;;;;;;;3.45;2.10;;;3.80;99.90;;;;;;476657;249;27553;-71
2024/02/23 05:53:08;;;;;;;2.83;1.80;;;3.80;99.90;;;;;;476740;249;27555;-72
2024/02/23 05:55:09;;;;;;;5.65;2.10;;;3.80;99.90;;;;;;476734;249;28095;-71
2024/02/23 05:57:10;;;;;;;4.53;2.22;;;3.80;99.90;;;;;;476665;249;28035;-72
2024/02/23 05:59:11;;;;;;;6.65;2.22;;;3.80;99.90;;;;;;476671;249;27988;-72
2024/02/23 06:01:13;;;;;;;3.00;1.73;;;3.80;99.90;;;;;;476721;249;27630;-71
2024/02/23 06:03:14;;;;;;;3.12;1.83;;;3.70;99.90;;;;;;476548;249;27569;-72
2024/02/23 06:05:15;;;;;;;12.85;2.28;;;3.70;99.90;;;;;;476722;249;27510;-72
2024/02/23 06:07:16;;;;;;;3.97;1.50;;;3.70;99.90;;;;;;476664;249;27551;-71
2024/02/23 06:09:18;;;;;;;3.67;1.50;;;3.70;99.90;;;;;;476696;249;27608;-71
2024/02/23 06:11:19;;;;;;;3.45;1.87;;;3.70;99.90;;;;;;476680;249;27534;-74
2024/02/23 06:13:20;;;;;;;5.55;1.90;;;3.60;99.90;;;;;;476728;249;27557;-74
2024/02/23 06:15:21;;;;;;;10.23;2.40;;;3.50;99.90;;;;;;476678;249;27522;-72
2024/02/23 06:17:23;;;;;;;3.17;1.98;;;3.60;99.90;;;;;;476588;249;27554;-71
2024/02/23 06:19:24;;;;;;;3.72;1.80;;;3.60;99.90;;;;;;476757;249;28098;-73
2024/02/23 06:21:25;;;;;;;8.00;2.08;;;3.60;99.90;;;;;;476718;249;28089;-71
2024/02/23 06:23:26;;;;;;;3.75;1.80;;;3.60;99.90;;;;;;476698;249;28120;-74
2024/02/23 06:25:28;;;;;;;5.25;2.12;;;3.60;99.90;;;;;;476705;249;29184;-71
2024/02/23 06:27:29;;;;;;;5.40;2.30;;;3.50;99.90;;;;;;476587;249;27548;-71
2024/02/23 06:29:30;;;;;;;7.07;2.20;;;3.50;99.90;;;;;;476680;249;27641;-73
2024/02/23 06:31:34;;;;;;;4.40;1.90;;;3.40;99.90;;;;;;476553;245;27558;-71
2024/02/23 06:33:33;;;;;;;7.45;1.90;;;3.50;99.90;;;;;;476473;249;27543;-71
2024/02/23 06:35:34;;;;;;;5.65;1.80;;;3.50;99.90;;;;;;476662;249;27625;-71
2024/02/23 06:37:35;;;;;;;5.75;2.05;;;3.40;99.90;;;;;;476390;249;27495;-72
2024/02/23 06:39:36;;;;;;;4.28;1.77;;;3.40;99.90;;;;;;476629;249;27603;-71
2024/02/23 06:41:38;;;;;;;3.40;1.70;;;3.40;99.90;;;;;;476652;249;27637;-71
2024/02/23 06:43:39;;;;;;;2.85;2.08;;;3.30;99.90;;;;;;476669;249;28050;-71
2024/02/23 06:45:40;;;;;;;7.80;2.25;;;3.30;99.90;;;;;;476692;249;28738;-71
2024/02/23 06:47:42;;;;;;;5.45;1.70;;;3.30;99.90;;;;;;476641;249;27975;-71
2024/02/23 06:49:46;;;;;;;5.75;2.35;;;3.40;99.90;;;;;;476698;249;28049;-71
2024/02/23 06:51:47;;;;;;;6.97;2.30;;;3.40;99.90;;;;;;476701;249;28099;-71
2024/02/23 06:53:48;;;;;;;4.37;1.70;;;3.40;99.90;;;;;;476668;249;27981;-71
2024/02/23 06:55:49;;;;;;;12.02;2.20;;;3.40;99.90;;;;;;476702;249;27523;-71
2024/02/23 06:57:51;;;;;;;3.60;1.50;;;3.50;99.90;;;;;;476679;249;27579;-72
2024/02/23 06:59:52;;;;;;;6.62;2.47;;;3.60;99.90;;;;;;476702;249;27527;-71
2024/02/23 07:01:54;;;;;;;9.95;2.15;;;3.70;99.90;;;;;;476678;249;27656;-71
2024/02/23 07:03:54;;;;;;;4.03;1.67;;;3.70;99.90;;;;;;476652;249;27538;-70
2024/02/23 07:05:56;;;;;;;7.30;1.80;;;3.80;99.90;;;;;;476697;249;27541;-72
2024/02/23 07:07:57;;;;;;;7.85;2.10;;;3.80;99.90;;;;;;476657;249;27609;-72
2024/02/23 07:09:58;;;;;;;6.30;1.80;;;3.80;99.90;;;;;;476696;249;27519;-71
2024/02/23 07:11:59;;;;;;;10.68;2.10;;;3.80;99.90;;;;;;476656;249;27566;-71
2024/02/23 07:14:01;;;;;;;6.55;1.70;;;3.90;99.90;;;;;;476507;249;27578;-72
2024/02/23 07:16:02;;;;;;;4.80;2.00;;;3.90;99.90;;;;;;476709;249;27519;-71
2024/02/23 07:18:03;;;;;;;14.52;5.85;;;4.00;99.90;;;;;;476594;249;27642;-72
2024/02/23 07:20:05;;;;;;;9.07;2.92;;;4.00;99.90;;;;;;476678;249;27681;-71
2024/02/23 07:22:06;;;;;;;4.87;2.30;;;4.00;99.90;;;;;;476630;249;27580;-71
2024/02/23 07:24:07;;;;;;;5.93;2.08;;;4.20;99.90;;;;;;476698;249;27561;-73
2024/02/23 07:26:08;;;;;;;7.12;2.03;;;4.20;99.90;;;;;;476692;249;27598;-71
2024/02/23 07:28:09;;;;;;;10.52;5.35;;;4.20;99.90;;;;;;476582;249;28130;-72
2024/02/23 07:30:11;;;;;;;25.20;13.27;;;4.20;99.90;;;;;;476679;249;27998;-72
2024/02/23 07:32:12;;;;;;;9.38;2.92;;;4.30;99.90;;;;;;476711;249;27521;-70
2024/02/23 07:34:13;;;;;;;10.90;4.10;;;4.30;99.90;;;;;;476638;249;27665;-74
2024/02/23 07:36:14;;;;;;;17.08;7.05;;;4.20;99.90;;;;;;476636;249;27557;-72
2024/02/23 07:38:17;;;;;;;6.87;3.60;;;4.20;99.90;;;;;;476596;249;27569;-71
2024/02/23 07:40:17;;;;;;;5.87;2.55;;;4.30;99.90;;;;;;476564;249;27669;-72
2024/02/23 07:42:18;;;;;;;4.12;2.25;;;4.30;99.90;;;;;;476295;247;27907;-74
2024/02/23 07:44:19;;;;;;;4.50;2.87;;;4.30;99.90;;;;;;477371;247;27601;-74
2024/02/23 07:46:22;;;;;;;4.25;2.45;;;4.30;99.90;;;;;;476956;247;27947;-73
2024/02/23 07:48:22;;;;;;;5.95;3.30;;;4.30;99.90;;;;;;486100;244;27964;-71
2024/02/23 07:50:23;;;;;;;6.12;4.45;;;4.40;99.90;;;;;;476614;247;28118;-75
2024/02/23 07:52:24;;;;;;;7.45;3.20;;;4.50;99.90;;;;;;481328;246;27498;-73
2024/02/23 07:54:26;;;;;;;7.22;3.55;;;4.50;99.90;;;;;;478176;246;27518;-72
2024/02/23 07:56:27;;;;;;;14.25;3.90;;;4.60;99.90;;;;;;485041;244;27449;-71
2024/02/23 07:58:28;;;;;;;3.10;2.80;;;4.60;99.90;;;;;;482657;244;28054;-72
2024/02/23 08:00:30;;;;;;;12.05;7.00;;;4.70;99.90;;;;;;483373;244;27667;-72
2024/02/23 08:02:31;;;;;;;7.07;3.00;;;4.70;99.90;;;;;;476473;249;27368;-72
2024/02/23 08:04:32;;;;;;;8.85;2.45;;;4.60;99.90;;;;;;485556;244;27989;-72
2024/02/23 08:06:33;;;;;;;10.50;3.97;;;4.70;99.90;;;;;;476666;247;29062;-72
2024/02/23 08:08:35;;;;;;;10.02;4.45;;;4.70;99.90;;;;;;480587;246;27610;-72
2024/02/23 08:10:36;;;;;;;5.18;2.85;;;4.80;99.90;;;;;;480145;246;27531;-76
2024/02/23 08:12:37;;;;;;;12.75;2.70;;;4.80;99.90;;;;;;482632;244;27429;-74
2024/02/23 08:14:38;;;;;;;9.50;4.45;;;4.90;99.90;;;;;;485603;244;27489;-75
2024/02/23 08:16:39;;;;;;;9.48;4.95;;;4.90;99.90;;;;;;476989;246;27559;-75
2024/02/23 08:18:41;;;;;;;10.27;5.03;;;5.10;99.90;;;;;;487326;242;27516;-73
2024/02/23 08:20:42;;;;;;;10.27;4.82;;;5.20;99.90;;;;;;484415;244;27916;-75
2024/02/23 08:22:43;;;;;;;7.03;2.40;;;5.30;99.90;;;;;;484767;244;28032;-72
2024/02/23 08:24:44;;;;;;;10.43;3.47;;;5.30;99.90;;;;;;478080;246;27605;-71
2024/02/23 08:26:46;;;;;;;9.93;3.25;;;5.30;99.90;;;;;;481976;246;27545;-72
2024/02/23 08:28:47;;;;;;;13.10;3.03;;;5.30;99.90;;;;;;480085;245;27502;-71
2024/02/23 08:30:48;;;;;;;8.80;3.22;;;5.50;99.90;;;;;;476380;246;27528;-72
2024/02/23 08:32:50;;;;;;;9.32;3.20;;;5.40;99.90;;;;;;485019;244;27440;-70
2024/02/23 08:34:52;;;;;;;4.75;2.40;;;5.30;99.90;;;;;;484947;244;27936;-71
2024/02/23 08:36:52;;;;;;;9.25;3.20;;;5.20;99.90;;;;;;478598;246;27977;-72
2024/02/23 08:38:53;;;;;;;9.95;4.65;;;5.30;99.90;;;;;;480765;245;27530;-74
2024/02/23 08:40:55;;;;;;;3.37;2.50;;;5.40;99.90;;;;;;476842;246;27528;-74
2024/02/23 08:42:56;;;;;;;10.68;2.90;;;5.50;99.90;;;;;;484163;244;27507;-73
2024/02/23 08:44:57;;;;;;;4.28;3.87;;;5.60;99.90;;;;;;476288;247;27518;-72
2024/02/23 08:46:58;;;;;;;5.10;2.12;;;5.70;99.90;;;;;;478243;246;27528;-74
2024/02/23 08:49:00;;;;;;;11.00;3.25;;;5.80;99.90;;;;;;477905;246;28247;-73
2024/02/23 08:51:01;;;;;;;4.82;2.60;;;5.90;99.90;;;;;;483492;244;27986;-75
2024/02/23 08:53:02;;;;;;;5.32;3.20;;;5.80;99.90;;;;;;484608;244;27545;-75
2024/02/23 08:55:03;;;;;;;7.20;2.87;;;5.70;99.90;;;;;;485992;244;27494;-75
2024/02/23 08:57:05;;;;;;;4.87;1.87;;;5.70;99.90;;;;;;477779;246;27598;-75
2024/02/23 08:59:06;;;;;;;8.77;2.17;;;5.80;99.90;;;;;;478009;245;27524;-75
2024/02/23 09:01:09;;;;;;;10.25;2.10;;;5.90;99.90;;;;;;479195;245;27591;-73
2024/02/23 09:03:08;;;;;;;5.05;2.10;;;5.90;99.90;;;;;;482457;242;28014;-76
2024/02/23 09:05:10;;;;;;;13.70;2.15;;;6.10;99.90;;;;;;481090;244;27922;-75
2024/02/23 09:07:11;;;;;;;6.40;1.83;;;6.10;99.90;;;;;;477352;242;27653;-73
2024/02/23 09:09:12;;;;;;;5.47;1.90;;;6.00;99.90;;;;;;479367;244;27627;-73
2024/02/23 09:11:15;;;;;;;7.40;2.35;;;6.10;99.90;;;;;;482143;244;27437;-73
2024/02/23 09:13:15;;;;;;;7.15;1.87;;;6.20;99.90;;;;;;484359;242;27528;-75
2024/02/23 09:15:16;;;;;;;6.25;2.22;;;6.20;99.90;;;;;;476669;247;27623;-73
2024/02/23 09:17:18;;;;;;;4.68;1.90;;;6.30;99.90;;;;;;479459;243;28050;-74
2024/02/23 09:19:18;;;;;;;3.73;1.70;;;6.30;99.90;;;;;;477490;246;28708;-74
2024/02/23 09:21:20;;;;;;;9.68;3.30;;;6.30;99.90;;;;;;484251;244;27629;-71
2024/02/23 09:23:21;;;;;;;6.00;2.37;;;6.30;99.90;;;;;;477579;246;27456;-74
2024/02/23 09:25:22;;;;;;;9.40;2.45;;;6.40;99.90;;;;;;483897;244;27528;-74
2024/02/23 09:27:24;;;;;;;3.57;2.20;;;6.40;99.90;;;;;;483190;245;27587;-72
2024/02/23 09:29:25;;;;;;;9.10;2.13;;;6.30;99.90;;;;;;482744;244;28918;-74
2024/02/23 09:31:28;;;;;;;4.67;2.10;;;6.40;99.90;;;;;;487583;243;28796;-74
2024/02/23 09:33:27;;;;;;;9.73;4.10;;;6.30;99.90;;;;;;482707;246;28884;-73
2024/02/23 09:35:29;;;;;;;11.23;3.17;;;6.10;99.90;;;;;;484249;245;28069;-74
2024/02/23 09:37:30;;;;;;;4.90;2.50;;;6.20;99.90;;;;;;482711;246;28579;-74
2024/02/23 09:39:31;;;;;;;9.07;3.13;;;6.30;99.90;;;;;;482816;246;27536;-75
2024/02/23 09:41:34;;;;;;;7.27;2.43;;;6.30;99.90;;;;;;482752;246;27846;-73
2024/02/23 09:43:34;;;;;;;11.77;3.47;;;6.40;99.90;;;;;;482728;246;28460;-74
2024/02/23 09:45:35;;;;;;;10.93;3.33;;;6.40;99.90;;;;;;482818;246;27611;-74
2024/02/23 09:47:36;;;;;;;11.17;3.20;;;6.50;99.90;;;;;;482784;246;28870;-74
2024/02/23 09:49:37;;;;;;;9.07;4.17;;;6.60;99.90;;;;;;482826;246;28915;-75
2024/02/23 09:51:39;;;;;;;4.97;2.80;;;6.70;99.90;;;;;;482795;246;27937;-73
2024/02/23 09:53:40;;;;;;;14.27;2.73;;;6.80;99.90;;;;;;482702;246;28869;-74
2024/02/23 09:55:41;;;;;;;7.70;3.40;;;6.80;99.90;;;;;;482727;246;28750;-74
2024/02/23 09:57:43;;;;;;;5.50;1.77;;;6.80;99.90;;;;;;482775;246;28522;-73
2024/02/23 09:59:44;;;;;;;6.50;2.13;;;6.80;99.90;;;;;;482819;246;28254;-76
2024/02/23 10:01:45;;;;;;;11.27;1.87;;;6.90;99.90;;;;;;482778;246;28797;-73
2024/02/23 10:03:46;;;;;;;5.43;2.20;;;7.10;99.90;;;;;;482784;246;28098;-73
2024/02/23 10:05:48;;;;;;;10.07;2.37;;;7.10;99.90;;;;;;481580;246;27627;-73
2024/02/23 10:07:49;;;;;;;5.93;1.60;;;7.10;99.90;;;;;;473639;250;27830;-73
2024/02/23 10:09:50;;;;;;;10.90;2.10;;;7.10;99.90;;;;;;484025;245;28819;-74
2024/02/23 10:11:51;;;;;;;9.40;2.23;;;7.00;99.90;;;;;;484031;245;27847;-73
2024/02/23 10:13:52;;;;;;;7.20;2.57;;;7.00;99.90;;;;;;478097;245;27978;-74
2024/02/23 10:15:54;;;;;;;5.37;2.40;;;7.10;99.90;;;;;;476913;249;28018;-74
2024/02/23 10:17:55;;;;;;;4.57;2.17;;;7.10;99.90;;;;;;467957;251;28008;-73
2024/02/23 10:19:57;;;;;;;7.70;2.47;;;7.20;99.90;;;;;;476899;249;27736;-75
2024/02/23 10:21:58;;;;;;;6.93;2.40;;;7.30;99.90;;;;;;467941;254;28176;-74
2024/02/23 10:23:59;;;;;;;12.97;3.10;;;7.40;99.90;;;;;;476842;249;28495;-73
2024/02/23 10:26:00;;;;;;;8.73;1.83;;;7.40;99.90;;;;;;468049;251;27551;-75
2024/02/23 10:28:01;;;;;;;4.60;1.50;;;7.40;99.90;;;;;;476910;249;27865;-74
2024/02/23 10:30:02;;;;;;;13.23;2.57;;;7.40;99.90;;;;;;467985;251;27963;-75
2024/02/23 10:32:04;;;;;;;7.33;2.90;;;7.50;99.90;;;;;;476928;249;27961;-75
2024/02/23 10:34:07;;;;;;;10.87;2.20;;;7.50;99.90;;;;;;467938;251;27976;-74
2024/02/23 10:36:06;;;;;;;7.77;2.30;;;7.50;99.90;;;;;;476828;249;28014;-77
2024/02/23 10:38:09;;;;;;;7.60;2.40;;;7.50;99.90;;;;;;468041;251;28051;-74